createdAt,value
2019-04-22T00:01:36.526Z,18.08
2019-04-22T00:04:11.070Z,18.10
2019-04-22T00:07:03.321Z,17.99
2019-04-22T00:09:38.870Z,17.97
2019-04-22T00:12:13.767Z,17.88
2019-04-22T00:14:35.339Z,17.92
2019-04-22T00:17:20.005Z,17.91
2019-04-22T00:19:45.694Z,17.94
2019-04-22T00:22:17.914Z,17.84
2019-04-22T00:24:44.819Z,17.88
2019-04-22T00:27:20.209Z,17.84
2019-04-22T00:30:00.007Z,17.75
2019-04-22T00:32:18.180Z,17.68
2019-04-22T00:34:53.714Z,17.72
2019-04-22T00:37:28.620Z,17.63
2019-04-22T00:40:17.697Z,17.57
2019-04-22T00:42:29.244Z,17.54
2019-04-22T00:45:03.283Z,17.60
2019-04-22T00:47:36.458Z,17.49
2019-04-22T00:50:17.472Z,17.42
2019-04-22T00:52:34.294Z,17.48
2019-04-22T00:55:05.540Z,17.40
2019-04-22T00:57:35.543Z,17.41
2019-04-22T01:00:05.552Z,17.31
2019-04-22T01:02:41.861Z,17.36
2019-04-22T01:05:07.671Z,17.31
2019-04-22T01:07:36.898Z,17.25
2019-04-22T01:10:12.931Z,17.28
2019-04-22T01:12:44.070Z,17.14
2019-04-22T01:15:19.574Z,17.11
2019-04-22T01:17:49.473Z,17.06
2019-04-22T01:20:39.049Z,16.98
2019-04-22T01:22:46.084Z,16.83
2019-04-22T01:25:17.655Z,16.67
2019-04-22T01:27:41.805Z,16.52
2019-04-22T01:30:10.961Z,16.37
2019-04-22T01:32:34.987Z,16.24
2019-04-22T01:35:14.309Z,16.15
2019-04-22T01:37:52.032Z,16.19
2019-04-22T01:40:32.898Z,16.15
2019-04-22T01:43:05.492Z,16.12
2019-04-22T01:45:31.358Z,16.01
2019-04-22T01:48:05.436Z,16.07
2019-04-22T01:50:32.718Z,15.92
2019-04-22T01:53:08.609Z,15.78
2019-04-22T01:55:39.124Z,15.71
2019-04-22T01:58:08.473Z,15.54
2019-04-22T02:00:40.259Z,15.42
2019-04-22T02:03:12.701Z,15.33
2019-04-22T02:05:44.089Z,15.28
2019-04-22T02:08:28.379Z,15.20
2019-04-22T02:10:49.373Z,15.25
2019-04-22T02:13:15.667Z,15.16
2019-04-22T02:15:52.738Z,15.15
2019-04-22T02:18:23.371Z,15.04
2019-04-22T02:20:48.502Z,14.94
2019-04-22T02:23:45.170Z,14.84
2019-04-22T02:44:02.086Z,14.14
2019-04-22T02:46:45.114Z,14.12
2019-04-22T02:49:11.715Z,14.14
2019-04-22T03:04:10.958Z,13.77
2019-04-22T03:09:05.422Z,13.64
2019-04-22T03:11:34.097Z,13.57
2019-04-22T03:14:08.716Z,13.56
2019-04-22T03:16:40.557Z,13.59
2019-04-22T03:21:34.302Z,13.54
2019-04-22T03:24:17.551Z,13.51
2019-04-22T03:29:04.186Z,13.43
2019-04-22T03:42:05.701Z,13.42
2019-04-22T03:47:11.625Z,13.17
2019-04-22T03:54:40.389Z,13.20
2019-04-22T03:57:33.753Z,13.19
2019-04-22T04:02:16.220Z,13.15
2019-04-22T04:07:26.912Z,12.96
2019-04-22T04:09:54.091Z,12.99
2019-04-22T04:15:07.470Z,12.92
2019-04-22T04:22:30.440Z,12.69
2019-04-22T04:25:25.121Z,12.69
2019-04-22T04:27:49.014Z,12.58
2019-04-22T04:30:05.532Z,12.65
2019-04-22T04:32:36.691Z,12.54
2019-04-22T04:35:12.790Z,12.50
2019-04-22T04:37:42.607Z,12.45
2019-04-22T04:40:05.141Z,12.65
2019-04-22T04:47:54.531Z,12.67
2019-04-22T04:50:16.030Z,12.75
2019-04-22T04:52:50.449Z,12.71
2019-04-22T04:55:12.291Z,12.76
2019-04-22T05:00:32.641Z,12.73
2019-04-22T05:07:40.918Z,12.86
2019-04-22T05:10:26.509Z,12.98
2019-04-22T05:15:20.484Z,13.24
2019-04-22T05:17:55.127Z,13.30
2019-04-22T05:20:33.660Z,13.47
2019-04-22T05:22:39.938Z,13.69
2019-04-22T05:25:15.076Z,13.72
2019-04-22T05:30:23.422Z,13.93
2019-04-22T05:32:44.576Z,13.99
2019-04-22T05:35:14.350Z,14.11
2019-04-22T05:37:50.297Z,14.30
2019-04-22T05:40:20.550Z,14.39
2019-04-22T05:42:54.621Z,14.60
2019-04-22T05:45:23.125Z,14.76
2019-04-22T05:48:01.224Z,15.08
2019-04-22T05:50:21.818Z,15.20
2019-04-22T05:52:57.048Z,15.58
2019-04-22T05:57:59.141Z,16.18
2019-04-22T06:01:01.918Z,16.59
2019-04-22T06:05:38.551Z,17.25
2019-04-22T06:08:13.263Z,17.56
2019-04-22T06:10:45.635Z,17.86
2019-04-22T06:13:06.563Z,17.99
2019-04-22T06:15:37.290Z,18.31
2019-04-22T06:18:22.588Z,18.45
2019-04-22T06:21:03.705Z,18.55
2019-04-22T06:23:25.664Z,18.76
2019-04-22T06:26:06.733Z,18.99
2019-04-22T06:28:44.080Z,19.14
2019-04-22T06:33:27.403Z,19.82
2019-04-22T06:41:04.530Z,22.56
2019-04-22T06:43:35.029Z,24.21
2019-04-22T06:46:00.797Z,25.31
2019-04-22T06:48:49.163Z,26.04
2019-04-22T06:51:09.461Z,26.93
2019-04-22T06:53:37.297Z,26.94
2019-04-22T06:56:04.536Z,27.34
2019-04-22T06:58:44.285Z,27.15
2019-04-22T07:01:22.450Z,26.64
2019-04-22T07:06:13.123Z,25.52
2019-04-22T07:11:06.102Z,25.10
2019-04-22T07:14:01.570Z,25.99
2019-04-22T07:16:19.549Z,26.67
2019-04-22T07:18:48.699Z,26.24
2019-04-22T07:21:19.738Z,25.70
2019-04-22T07:24:03.184Z,24.79
2019-04-22T07:26:21.648Z,24.10
2019-04-22T07:28:49.142Z,23.52
2019-04-22T07:31:20.618Z,23.25
2019-04-22T07:34:02.364Z,23.31
2019-04-22T07:38:57.824Z,23.32
2019-04-22T07:41:30.170Z,23.63
2019-04-22T07:46:33.742Z,23.95
2019-04-22T07:49:02.367Z,24.38
2019-04-22T07:51:33.298Z,24.50
2019-04-22T07:54:01.789Z,24.79
2019-04-22T07:56:42.068Z,25.24
2019-04-22T07:59:13.996Z,25.67
2019-04-22T08:01:38.613Z,26.50
2019-04-22T08:04:16.004Z,27.74
2019-04-22T08:06:46.371Z,28.53
2019-04-22T08:09:13.934Z,28.94
2019-04-22T08:14:14.747Z,30.45
2019-04-22T08:21:45.464Z,31.82
2019-04-22T08:24:17.860Z,32.42
2019-04-22T08:27:04.834Z,32.94
2019-04-22T08:29:28.211Z,32.08
2019-04-22T08:31:58.053Z,32.66
2019-04-22T08:39:35.870Z,34.28
2019-04-22T08:41:55.517Z,34.65
2019-04-22T08:44:40.176Z,34.42
2019-04-22T08:47:08.662Z,34.58
2019-04-22T08:49:31.990Z,33.83
2019-04-22T08:52:01.012Z,34.85
2019-04-22T08:54:40.993Z,35.04
2019-04-22T08:57:07.212Z,34.84
2019-04-22T08:59:31.250Z,34.88
2019-04-22T09:02:16.349Z,34.21
2019-04-22T09:04:37.012Z,34.75
2019-04-22T09:07:21.189Z,35.44
2019-04-22T09:09:44.766Z,35.77
2019-04-22T09:12:14.729Z,35.41
2019-04-22T09:14:42.835Z,36.21
2019-04-22T09:17:17.626Z,35.17
2019-04-22T09:19:40.395Z,34.71
2019-04-22T09:22:26.217Z,34.14
2019-04-22T09:24:48.611Z,33.03
2019-04-22T09:27:31.791Z,33.24
2019-04-22T09:32:19.074Z,35.54
2019-04-22T09:34:53.229Z,35.77
2019-04-22T09:37:27.192Z,35.38
2019-04-22T09:39:59.668Z,36.91
2019-04-22T09:42:24.094Z,36.59
2019-04-22T09:44:53.787Z,36.85
2019-04-22T09:47:26.330Z,36.74
2019-04-22T09:52:28.078Z,38.34
2019-04-22T09:55:07.497Z,39.99
2019-04-22T10:00:02.793Z,38.73
2019-04-22T10:05:07.560Z,38.68
2019-04-22T10:07:52.447Z,39.00
2019-04-22T10:10:17.077Z,39.23
2019-04-22T10:15:10.156Z,39.06
2019-04-22T10:17:43.983Z,40.29
2019-04-22T10:20:10.209Z,39.82
2019-04-22T10:22:57.714Z,40.21
2019-04-22T10:25:21.600Z,39.19
2019-04-22T10:27:51.981Z,39.81
2019-04-22T10:30:29.491Z,38.58
2019-04-22T10:32:50.844Z,39.28
2019-04-22T10:35:17.122Z,39.08
2019-04-22T10:37:43.875Z,39.95
2019-04-22T10:40:15.900Z,39.14
2019-04-22T10:42:47.196Z,39.73
2019-04-22T10:45:18.384Z,40.65
2019-04-22T10:47:48.085Z,41.04
2019-04-22T10:50:18.671Z,42.08
2019-04-22T10:52:48.129Z,40.67
2019-04-22T10:55:19.109Z,40.06
2019-04-22T10:57:48.793Z,39.94
2019-04-22T11:00:19.775Z,40.66
2019-04-22T11:02:49.737Z,41.11
2019-04-22T11:05:19.969Z,40.91
2019-04-22T11:07:56.763Z,40.70
2019-04-22T11:10:36.984Z,41.61
2019-04-22T11:12:51.822Z,42.14
2019-04-22T11:15:22.445Z,42.83
2019-04-22T11:17:53.456Z,42.65
2019-04-22T11:20:23.814Z,42.22
2019-04-22T11:22:53.456Z,42.60
2019-04-22T11:25:23.637Z,42.99
2019-04-22T11:27:53.705Z,42.59
2019-04-22T11:30:25.728Z,41.25
2019-04-22T11:32:55.964Z,41.22
2019-04-22T11:35:25.860Z,40.61
2019-04-22T11:37:56.543Z,40.12
2019-04-22T11:40:34.563Z,41.38
2019-04-22T11:42:59.656Z,41.21
2019-04-22T11:45:29.102Z,40.85
2019-04-22T11:47:59.547Z,41.32
2019-04-22T11:50:30.194Z,40.33
2019-04-22T11:53:00.775Z,39.76
2019-04-22T11:55:30.908Z,40.63
2019-04-22T11:58:01.043Z,40.30
2019-04-22T12:00:35.100Z,38.97
2019-04-22T12:03:05.283Z,38.14
2019-04-22T12:05:34.822Z,37.72
2019-04-22T12:08:04.979Z,37.40
2019-04-22T12:10:42.700Z,36.71
2019-04-22T12:13:06.397Z,37.78
2019-04-22T12:15:37.128Z,37.73
2019-04-22T12:18:07.219Z,37.96
2019-04-22T12:20:37.277Z,37.62
2019-04-22T12:23:07.373Z,37.07
2019-04-22T12:25:46.430Z,36.11
2019-04-22T12:28:09.083Z,36.18
2019-04-22T12:30:39.433Z,35.22
2019-04-22T12:33:11.625Z,35.35
2019-04-22T12:35:40.049Z,34.74
2019-04-22T12:38:12.357Z,33.67
2019-04-22T12:40:47.427Z,33.23
2019-04-22T12:43:14.035Z,32.69
2019-04-22T12:45:44.621Z,31.80
2019-04-22T12:48:15.058Z,31.45
2019-04-22T12:50:48.044Z,31.45
2019-04-22T12:53:19.771Z,30.95
2019-04-22T12:55:48.089Z,30.46
2019-04-22T12:58:18.144Z,29.54
2019-04-22T13:00:48.403Z,29.35
2019-04-22T13:03:18.266Z,28.71
2019-04-22T13:05:49.326Z,28.39
2019-04-22T13:08:19.991Z,28.39
2019-04-22T13:10:58.716Z,28.55
2019-04-22T13:13:20.836Z,28.79
2019-04-22T13:15:51.031Z,28.64
2019-04-22T13:18:30.818Z,28.51
2019-04-22T13:20:52.849Z,28.06
2019-04-22T13:23:22.274Z,28.14
2019-04-22T13:25:52.640Z,27.71
2019-04-22T13:28:23.017Z,27.70
2019-04-22T13:30:52.830Z,27.67
2019-04-22T13:33:23.185Z,27.55
2019-04-22T13:35:54.223Z,27.82
2019-04-22T13:38:25.003Z,27.83
2019-04-22T13:41:07.179Z,27.47
2019-04-22T13:43:26.753Z,27.39
2019-04-22T13:45:56.418Z,27.57
2019-04-22T13:48:46.267Z,27.52
2019-04-22T13:54:37.127Z,27.72
2019-04-22T13:56:18.838Z,27.79
2019-04-22T13:58:46.142Z,27.87
2019-04-22T14:01:04.842Z,27.94
2019-04-22T14:03:52.217Z,27.83
2019-04-22T14:06:22.667Z,27.76
2019-04-22T14:08:53.419Z,27.96
2019-04-22T14:11:34.113Z,27.71
2019-04-22T14:13:54.159Z,27.47
2019-04-22T14:16:24.807Z,27.37
2019-04-22T14:18:54.224Z,27.35
2019-04-22T14:21:24.711Z,27.28
2019-04-22T14:23:54.319Z,27.45
2019-04-22T14:26:25.053Z,27.57
2019-04-22T14:28:55.695Z,27.56
2019-04-22T14:31:26.539Z,27.66
2019-04-22T14:34:01.032Z,27.56
2019-04-22T14:36:27.593Z,27.42
2019-04-22T14:38:57.777Z,27.65
2019-04-22T14:41:42.623Z,27.64
2019-04-22T14:44:59.398Z,27.54
2019-04-22T14:47:02.162Z,27.59
2019-04-22T14:49:23.960Z,27.47
2019-04-22T14:51:58.763Z,27.53
2019-04-22T14:54:21.309Z,27.71
2019-04-22T14:56:34.227Z,27.74
2019-04-22T14:59:05.096Z,27.80
2019-04-22T15:01:35.338Z,27.74
2019-04-22T15:04:05.743Z,27.62
2019-04-22T15:06:36.138Z,27.53
2019-04-22T15:09:08.130Z,27.52
2019-04-22T15:11:51.019Z,27.42
2019-04-22T15:14:09.659Z,27.33
2019-04-22T15:16:41.005Z,27.26
2019-04-22T15:19:12.052Z,27.25
2019-04-22T15:21:42.981Z,27.08
2019-04-22T15:24:25.271Z,27.16
2019-04-22T15:26:56.664Z,27.07
2019-04-22T15:29:27.613Z,27.04
2019-04-22T15:31:57.663Z,26.95
2019-04-22T15:34:28.287Z,27.06
2019-04-22T15:36:58.107Z,26.98
2019-04-22T15:39:29.142Z,27.05
2019-04-22T15:42:09.760Z,26.94
2019-04-22T15:44:30.380Z,26.91
2019-04-22T15:47:00.941Z,26.99
2019-04-22T15:49:31.898Z,27.11
2019-04-22T15:52:03.001Z,27.23
2019-04-22T15:54:34.006Z,27.04
2019-04-22T15:57:04.736Z,26.89
2019-04-22T15:59:49.439Z,26.74
2019-04-22T16:02:07.764Z,26.53
2019-04-22T16:04:36.803Z,26.75
2019-04-22T16:07:07.187Z,26.56
2019-04-22T16:09:37.657Z,26.77
2019-04-22T16:12:16.234Z,26.56
2019-04-22T16:14:43.727Z,26.39
2019-04-22T16:17:10.571Z,26.50
2019-04-22T16:19:41.131Z,26.42
2019-04-22T16:22:16.894Z,26.33
2019-04-22T16:24:56.380Z,26.27
2019-04-22T16:27:27.520Z,26.10
2019-04-22T16:29:57.227Z,26.00
2019-04-22T16:32:27.738Z,25.95
2019-04-22T16:34:58.872Z,25.85
2019-04-22T16:37:28.620Z,25.79
2019-04-22T16:39:58.904Z,25.73
2019-04-22T16:42:37.739Z,25.64
2019-04-22T16:44:59.695Z,25.50
2019-04-22T16:47:29.132Z,25.40
2019-04-22T16:49:59.615Z,25.33
2019-04-22T16:52:30.266Z,25.26
2019-04-22T16:55:01.003Z,25.23
2019-04-22T16:57:30.414Z,25.14
2019-04-22T17:00:00.452Z,25.04
2019-04-22T17:02:33.176Z,24.95
2019-04-22T17:05:05.259Z,24.92
2019-04-22T17:07:36.056Z,24.73
2019-04-22T17:10:17.780Z,24.68
2019-04-22T17:12:53.926Z,24.52
2019-04-22T17:15:18.909Z,24.49
2019-04-22T17:17:49.495Z,24.40
2019-04-22T17:20:19.176Z,24.32
2019-04-22T17:22:49.434Z,24.30
2019-04-22T17:25:20.375Z,24.26
2019-04-22T17:27:49.989Z,24.15
2019-04-22T17:30:20.333Z,23.97
2019-04-22T17:32:50.436Z,23.95
2019-04-22T17:35:20.367Z,23.95
2019-04-22T17:37:55.955Z,23.84
2019-04-22T17:40:39.422Z,23.77
2019-04-22T17:43:16.915Z,23.58
2019-04-22T17:45:44.979Z,23.54
2019-04-22T17:48:43.122Z,23.51
2019-04-22T17:51:16.177Z,23.41
2019-04-22T17:53:46.939Z,23.32
2019-04-22T17:56:15.660Z,23.29
2019-04-22T17:58:47.699Z,23.18
2019-04-22T18:01:20.698Z,23.09
2019-04-22T18:03:33.794Z,23.00
2019-04-22T18:06:03.374Z,22.89
2019-04-22T18:08:45.221Z,22.81
2019-04-22T18:11:31.909Z,22.68
2019-04-22T18:13:51.660Z,22.65
2019-04-22T18:16:25.715Z,22.54
2019-04-22T18:18:53.280Z,22.47
2019-04-22T18:21:23.202Z,22.39
2019-04-22T18:23:52.376Z,22.36
2019-04-22T18:26:26.186Z,22.23
2019-04-22T18:29:02.156Z,22.13
2019-04-22T18:31:22.885Z,22.09
2019-04-22T18:33:54.538Z,21.94
2019-04-22T18:36:29.213Z,21.83
2019-04-22T18:39:11.456Z,21.75
2019-04-22T18:41:34.148Z,21.73
2019-04-22T18:44:09.680Z,21.67
2019-04-22T18:46:36.871Z,21.65
2019-04-22T18:49:08.463Z,21.61
2019-04-22T18:51:46.289Z,21.47
2019-04-22T18:54:22.690Z,21.50
2019-04-22T18:56:57.890Z,21.47
2019-04-22T18:59:17.427Z,21.41
2019-04-22T19:01:41.925Z,21.39
2019-04-22T19:04:19.438Z,21.27
2019-04-22T19:07:01.768Z,21.25
2019-04-22T19:09:43.855Z,21.17
2019-04-22T19:12:28.101Z,21.09
2019-04-22T19:14:45.538Z,21.07
2019-04-22T19:17:21.645Z,21.00
2019-04-22T19:19:43.611Z,20.96
2019-04-22T19:22:07.665Z,20.96
2019-04-22T19:24:39.558Z,20.94
2019-04-22T19:27:16.084Z,20.85
2019-04-22T19:29:51.350Z,20.75
2019-04-22T19:32:18.462Z,20.63
2019-04-22T19:34:47.700Z,20.52
2019-04-22T19:37:20.032Z,20.48
2019-04-22T19:40:00.626Z,20.37
2019-04-22T19:42:31.022Z,20.41
2019-04-22T19:44:55.008Z,20.41
2019-04-22T19:50:03.922Z,20.35
2019-04-22T19:52:28.725Z,20.32
2019-04-22T19:55:04.821Z,20.28
2019-04-22T19:57:26.476Z,20.33
2019-04-22T20:00:01.708Z,20.29
2019-04-22T20:02:55.267Z,20.30
2019-04-22T20:05:43.683Z,20.32
2019-04-22T20:08:14.302Z,20.39
2019-04-22T20:10:44.038Z,20.38
2019-04-22T20:13:20.841Z,20.36
2019-04-22T20:15:37.481Z,20.39
2019-04-22T20:18:27.007Z,20.43
2019-04-22T20:20:54.354Z,20.37
2019-04-22T20:23:17.203Z,20.37
2019-04-22T20:25:44.532Z,20.30
2019-04-22T20:28:21.115Z,20.35
2019-04-22T20:30:50.555Z,20.39
2019-04-22T20:33:29.158Z,20.30
2019-04-22T20:35:58.235Z,20.20
2019-04-22T20:38:27.636Z,20.21
2019-04-22T20:40:55.164Z,20.18
2019-04-22T20:43:35.711Z,20.18
2019-04-22T20:46:02.988Z,20.17
2019-04-22T20:48:28.554Z,20.13
2019-04-22T20:50:59.342Z,20.10
2019-04-22T20:53:36.748Z,20.10
2019-04-22T20:56:04.206Z,20.07
2019-04-22T20:58:34.302Z,20.02
2019-04-22T21:00:55.573Z,20.13
2019-04-22T21:03:27.321Z,20.04
2019-04-22T21:06:00.730Z,20.14
2019-04-22T21:08:42.236Z,20.11
2019-04-22T21:11:04.142Z,20.06
2019-04-22T21:13:34.912Z,20.01
2019-04-22T21:16:18.373Z,20.04
2019-04-22T21:18:36.347Z,20.09
2019-04-22T21:21:20.361Z,20.01
2019-04-22T21:23:39.428Z,20.05
2019-04-22T21:26:13.812Z,19.97
2019-04-22T21:28:47.747Z,19.99
2019-04-22T21:31:23.328Z,19.94
2019-04-22T21:33:50.246Z,19.88
2019-04-22T21:36:24.991Z,19.97
2019-04-22T21:38:51.998Z,19.96
2019-04-22T21:41:23.122Z,19.91
2019-04-22T21:43:53.646Z,19.82
2019-04-22T21:46:28.936Z,19.86
2019-04-22T21:49:00.165Z,19.84
2019-04-22T21:51:34.854Z,19.79
2019-04-22T21:54:08.524Z,19.74
2019-04-22T21:56:41.004Z,19.61
2019-04-22T21:59:11.088Z,19.63
2019-04-22T22:01:51.141Z,19.59
2019-04-22T22:04:12.683Z,19.64
2019-04-22T22:06:37.358Z,19.56
2019-04-22T22:09:15.295Z,19.58
2019-04-22T22:11:46.771Z,19.50
2019-04-22T22:14:20.438Z,19.49
2019-04-22T22:16:44.672Z,19.45
2019-04-22T22:19:14.477Z,19.40
2019-04-22T22:24:22.912Z,19.32
2019-04-22T22:26:55.958Z,19.34
2019-04-22T22:29:37.976Z,19.24
2019-04-22T22:32:02.741Z,19.25
2019-04-22T22:34:43.195Z,19.24
2019-04-22T22:36:51.616Z,19.15
2019-04-22T22:39:23.630Z,19.16
2019-04-22T22:41:41.850Z,19.13
2019-04-22T22:44:21.103Z,19.10
2019-04-22T22:47:00.586Z,19.09
2019-04-22T22:49:36.197Z,19.05
2019-04-22T22:52:31.260Z,19.09
2019-04-22T22:54:34.516Z,18.99
2019-04-22T22:57:17.689Z,19.00
2019-04-22T22:59:38.635Z,18.95
2019-04-22T23:02:07.838Z,18.92
2019-04-22T23:05:00.421Z,18.95
2019-04-22T23:07:17.169Z,18.90
2019-04-22T23:09:47.132Z,18.88
2019-04-22T23:12:25.163Z,18.76
2019-04-22T23:14:43.834Z,18.77
2019-04-22T23:17:04.121Z,18.68
2019-04-22T23:19:28.019Z,18.60
2019-04-22T23:22:05.349Z,18.59
2019-04-22T23:24:48.255Z,18.47
2019-04-22T23:27:29.009Z,18.50
2019-04-22T23:30:09.499Z,18.49
2019-04-22T23:32:42.651Z,18.43
2019-04-22T23:35:24.226Z,18.41
2019-04-22T23:38:03.559Z,18.33
2019-04-22T23:40:34.359Z,18.23
2019-04-22T23:43:09.489Z,18.23
2019-04-22T23:45:41.710Z,18.09
2019-04-22T23:48:06.797Z,18.04
2019-04-22T23:50:40.361Z,17.90
2019-04-22T23:53:42.577Z,17.96
2019-04-22T23:56:03.187Z,17.78
2019-04-22T23:58:49.228Z,17.71
